Time;durP1;ratioP1;P1;durP2;ratioP2;P2;SDS_P1;SDS_P2;PMS_P1;PMS_P2;Temp;Humidity;BMP_temperature;BMP_pressure;BME280_temperature;BME280_humidity;BME280_pressure;Samples;Min_cycle;Max_cycle;Signal;HPM_P1;HPM_P2
2022/09/10 06:25:36;;;;;;;;;;;24.00;81.90;;;;;;5371224;22;19926;-76
2022/09/10 06:28:03;;;;;;;;;;;24.00;82.10;;;;;;5014993;28;19932;-75
2022/09/10 06:30:29;;;;;;;;;;;24.00;82.20;;;;;;5014978;28;20020;-75
2022/09/10 06:32:56;;;;;;;;;;;24.00;82.20;;;;;;5014511;28;20285;-74
2022/09/10 06:35:24;;;;;;;;;;;24.00;82.20;;;;;;5014771;28;19947;-74
2022/09/10 06:37:51;;;;;;;;;;;24.00;82.20;;;;;;5014778;28;19926;-74
2022/09/10 06:40:18;;;;;;;;;;;24.00;82.30;;;;;;5014446;28;20016;-74
2022/09/10 06:42:46;;;;;;;;;;;24.00;82.20;;;;;;5037456;23;19924;-76
2022/09/10 06:45:12;;;;;;;;;;;24.00;82.20;;;;;;5015998;28;19929;-76
2022/09/10 06:47:39;;;;;;;;;;;23.90;82.00;;;;;;5014874;28;20004;-77
2022/09/10 06:50:06;;;;;;;;;;;24.00;82.10;;;;;;5015417;28;20352;-77
2022/09/10 06:52:33;;;;;;;;;;;24.00;82.00;;;;;;5017637;28;20327;-77
2022/09/10 06:55:00;;;;;;;;;;;23.90;81.90;;;;;;5015741;28;19925;-77
2022/09/10 06:57:28;;;;;;;;;;;24.00;81.90;;;;;;5014922;28;19932;-77
2022/09/10 06:59:57;;;;;;;;;;;23.90;81.70;;;;;;5014853;28;20334;-77
2022/09/10 07:02:24;;;;;;;;;;;23.90;81.70;;;;;;5015883;28;19925;-77
2022/09/10 07:04:51;;;;;;;;;;;23.90;81.70;;;;;;5015036;28;19947;-77
2022/09/10 07:07:19;;;;;;;;;;;23.90;81.60;;;;;;5015513;28;20389;-77
2022/09/10 07:09:45;;;;;;;;;;;23.90;81.40;;;;;;5018037;28;19932;-80
2022/09/10 07:12:12;;;;;;;;;;;23.90;81.40;;;;;;5017755;28;19933;-80
2022/09/10 07:14:39;;;;;;;;;;;23.90;81.30;;;;;;5017443;28;20464;-79
2022/09/10 07:17:07;;;;;;;;;;;23.90;81.20;;;;;;5016994;28;19979;-79
2022/09/10 07:19:35;;;;;;;;;;;23.90;81.10;;;;;;5016440;28;20384;-79
2022/09/10 07:22:02;;;;;;;;;;;23.90;81.00;;;;;;5018107;28;19973;-80
2022/09/10 07:24:28;;;;;;;;;;;23.90;80.90;;;;;;5017107;28;19925;-79
2022/09/10 07:26:55;;;;;;;;;;;23.90;80.80;;;;;;5016892;28;20415;-79
2022/09/10 07:29:22;;;;;;;;;;;23.90;80.60;;;;;;5017752;28;19932;-79
2022/09/10 07:31:49;;;;;;;;;;;23.80;80.50;;;;;;5017784;28;19933;-79
2022/09/10 07:34:19;;;;;;;;;;;23.90;80.40;;;;;;5015586;28;20315;-79
2022/09/10 07:36:45;;;;;;;;;;;23.90;80.40;;;;;;5015807;28;20377;-79
2022/09/10 07:39:12;;;;;;;;;;;23.80;80.20;;;;;;5016818;28;19968;-78
2022/09/10 07:41:39;;;;;;;;;;;23.80;80.20;;;;;;5015998;28;19925;-79
2022/09/10 07:44:05;;;;;;;;;;;23.90;80.40;;;;;;5016365;28;20016;-79
2022/09/10 07:46:32;;;;;;;;;;;23.90;80.30;;;;;;5017383;28;19926;-79
2022/09/10 07:49:00;;;;;;;;;;;23.80;80.00;;;;;;5017803;28;19969;-79
2022/09/10 07:51:29;;;;;;;;;;;23.90;80.10;;;;;;5017625;28;20012;-79
2022/09/10 07:53:56;;;;;;;;;;;23.90;80.00;;;;;;5016716;28;19988;-79
2022/09/10 07:56:24;;;;;;;;;;;23.80;79.90;;;;;;5016990;28;19926;-79
2022/09/10 07:58:51;;;;;;;;;;;23.80;79.80;;;;;;5017086;28;19925;-79
2022/09/10 08:01:19;;;;;;;;;;;23.90;80.00;;;;;;5018163;28;19925;-78
2022/09/10 08:03:46;;;;;;;;;;;23.90;80.10;;;;;;5020131;28;20332;-78
2022/09/10 08:06:13;;;;;;;;;;;23.90;79.90;;;;;;5020333;28;20024;-78
2022/09/10 08:08:41;;;;;;;;;;;23.90;79.90;;;;;;5021632;28;19925;-79
2022/09/10 08:11:10;;;;;;;;;;;23.90;79.80;;;;;;5020397;28;19925;-79
2022/09/10 08:13:37;;;;;;;;;;;23.80;79.70;;;;;;5019323;28;19926;-78
2022/09/10 08:16:05;;;;;;;;;;;23.90;79.80;;;;;;5018502;28;20012;-77
2022/09/10 08:18:31;;;;;;;;;;;23.90;79.80;;;;;;5017356;28;19926;-80
2022/09/10 08:20:58;;;;;;;;;;;23.90;79.70;;;;;;5017957;28;19926;-76
2022/09/10 08:23:25;;;;;;;;;;;23.90;79.60;;;;;;5016864;28;20296;-76
2022/09/10 08:25:53;;;;;;;;;;;23.90;79.50;;;;;;5017028;28;20288;-76
2022/09/10 08:28:20;;;;;;;;;;;23.80;79.30;;;;;;5017080;28;19947;-76
2022/09/10 08:30:55;;;;;;;;;;;23.90;79.40;;;;;;5017077;28;19925;-76
2022/09/10 08:33:22;;;;;;;;;;;23.90;79.40;;;;;;5020036;28;19932;-81
2022/09/10 08:35:52;;;;;;;;;;;23.80;79.20;;;;;;5021830;28;20020;-79
2022/09/10 08:38:19;;;;;;;;;;;23.80;79.20;;;;;;5020232;28;19979;-80
2022/09/10 08:40:45;;;;;;;;;;;23.80;79.10;;;;;;5021434;28;19948;-80
2022/09/10 08:43:14;;;;;;;;;;;23.90;79.20;;;;;;5021002;28;19965;-80
2022/09/10 08:45:46;;;;;;;;;;;23.80;79.10;;;;;;5020207;28;19926;-80
2022/09/10 08:48:16;;;;;;;;;;;23.90;79.20;;;;;;5020491;28;19936;-80
2022/09/10 08:50:46;;;;;;;;;;;23.90;79.20;;;;;;5019036;28;20009;-81
2022/09/10 08:53:18;;;;;;;;;;;23.90;79.20;;;;;;5019588;28;19925;-82
2022/09/10 08:55:46;;;;;;;;;;;23.90;80.00;;;;;;5020034;28;19925;-82
2022/09/10 08:58:17;;;;;;;;;;;23.80;79.20;;;;;;5019207;28;19932;-81
2022/09/10 09:00:45;;;;;;;;;;;23.90;79.30;;;;;;5019785;28;19925;-81
2022/09/10 09:03:14;;;;;;;;;;;23.90;79.30;;;;;;5022133;28;20344;-81
2022/09/10 09:05:45;;;;;;;;;;;23.90;79.40;;;;;;5018336;28;19925;-82
2022/09/10 09:08:13;;;;;;;;;;;23.90;79.40;;;;;;5018208;28;20296;-81
2022/09/10 09:10:45;;;;;;;;;;;23.90;79.40;;;;;;5018374;28;19949;-81
2022/09/10 09:13:26;;;;;;;;;;;23.90;79.30;;;;;;5018587;28;20024;-81
2022/09/10 09:15:58;;;;;;;;;;;23.90;79.20;;;;;;5017441;28;20400;-83
2022/09/10 09:18:31;;;;;;;;;;;23.90;79.10;;;;;;5019394;28;20340;-82
2022/09/10 09:21:00;;;;;;;;;;;23.90;78.90;;;;;;5020466;28;19932;-82
2022/09/10 09:23:31;;;;;;;;;;;23.90;78.80;;;;;;5018719;28;19952;-81
2022/09/10 09:26:02;;;;;;;;;;;23.80;78.50;;;;;;5018858;28;19925;-81
2022/09/10 09:28:33;;;;;;;;;;;23.80;78.30;;;;;;5019077;28;19952;-81
2022/09/10 09:31:04;;;;;;;;;;;23.90;78.20;;;;;;5019536;28;20331;-81
2022/09/10 09:33:32;;;;;;;;;;;23.80;77.80;;;;;;5018717;28;19926;-81
2022/09/10 09:36:00;;;;;;;;;;;23.80;77.80;;;;;;5018341;28;20396;-81
2022/09/10 09:38:28;;;;;;;;;;;23.80;77.80;;;;;;5018579;28;20020;-82
2022/09/10 09:40:57;;;;;;;;;;;23.80;77.80;;;;;;5018017;28;19975;-82
2022/09/10 09:43:30;;;;;;;;;;;23.80;77.70;;;;;;5018068;28;19926;-82
2022/09/10 09:45:57;;;;;;;;;;;23.80;77.40;;;;;;5018071;28;20339;-82
2022/09/10 09:48:27;;;;;;;;;;;23.80;77.20;;;;;;5018881;28;19992;-83
2022/09/10 09:50:55;;;;;;;;;;;23.80;77.10;;;;;;5018831;28;20000;-82
2022/09/10 09:53:24;;;;;;;;;;;23.80;77.00;;;;;;5018075;28;19926;-82
2022/09/10 09:55:52;;;;;;;;;;;23.80;76.70;;;;;;5018430;28;19926;-82
2022/09/10 09:58:29;;;;;;;;;;;23.80;76.70;;;;;;5018632;28;20023;-82
2022/09/10 10:01:07;;;;;;;;;;;23.80;76.60;;;;;;5019905;28;20024;-83
2022/09/10 10:03:37;;;;;;;;;;;23.80;76.30;;;;;;5018756;28;19976;-83
2022/09/10 10:06:05;;;;;;;;;;;23.70;76.10;;;;;;5019021;28;20023;-82
2022/09/10 10:08:33;;;;;;;;;;;23.80;76.10;;;;;;5019176;28;20293;-82
2022/09/10 10:11:00;;;;;;;;;;;23.80;75.90;;;;;;5017774;28;19971;-80
2022/09/10 10:13:36;;;;;;;;;;;23.70;75.70;;;;;;5018491;28;20295;-83
2022/09/10 10:16:13;;;;;;;;;;;23.70;75.40;;;;;;5019689;28;19976;-83
2022/09/10 10:18:42;;;;;;;;;;;23.70;75.20;;;;;;5018211;28;20012;-82
2022/09/10 10:21:12;;;;;;;;;;;23.70;75.40;;;;;;5019392;28;19932;-81
2022/09/10 10:23:39;;;;;;;;;;;23.70;75.60;;;;;;5018216;28;19925;-80
2022/09/10 10:26:16;;;;;;;;;;;23.70;75.80;;;;;;5017724;28;19933;-80
2022/09/10 10:28:45;;;;;;;;;;;23.80;76.00;;;;;;5017734;28;19925;-81
2022/09/10 10:31:12;;;;;;;;;;;23.80;76.00;;;;;;5019201;28;20448;-82
2022/09/10 10:33:45;;;;;;;;;;;23.80;76.00;;;;;;5019857;28;19972;-83
2022/09/10 10:36:15;;;;;;;;;;;23.80;75.90;;;;;;5019180;28;19937;-83
2022/09/10 10:38:45;;;;;;;;;;;23.80;75.90;;;;;;5019685;28;19925;-83
2022/09/10 10:41:44;;;;;;;;;;;23.80;75.80;;;;;;5018068;28;20380;-82
2022/09/10 10:44:22;;;;;;;;;;;23.80;75.80;;;;;;4957520;28;20009;-82
2022/09/10 10:46:52;;;;;;;;;;;23.70;75.50;;;;;;4958088;29;19931;-82
2022/09/10 10:49:24;;;;;;;;;;;23.70;75.40;;;;;;4990877;28;19925;-82
2022/09/10 10:51:58;;;;;;;;;;;23.70;75.30;;;;;;5018356;28;19932;-82
2022/09/10 10:54:33;;;;;;;;;;;23.70;75.20;;;;;;5018607;28;19925;-84
2022/09/10 10:57:04;;;;;;;;;;;23.70;75.20;;;;;;5019563;28;19925;-83
2022/09/10 10:59:41;;;;;;;;;;;23.70;75.10;;;;;;5018570;28;20361;-82
2022/09/10 11:02:13;;;;;;;;;;;23.70;74.90;;;;;;5017469;28;19926;-81
2022/09/10 11:04:42;;;;;;;;;;;23.70;74.70;;;;;;5017830;28;19926;-80
2022/09/10 11:07:13;;;;;;;;;;;23.70;74.70;;;;;;5017399;28;19926;-80
2022/09/10 11:09:43;;;;;;;;;;;23.70;74.60;;;;;;5019036;28;19933;-80
2022/09/10 11:12:11;;;;;;;;;;;23.70;74.60;;;;;;5018748;28;19985;-81
2022/09/10 11:14:40;;;;;;;;;;;23.70;74.70;;;;;;5018027;28;20415;-81
2022/09/10 11:17:12;;;;;;;;;;;23.70;74.70;;;;;;5017620;28;20036;-80
2022/09/10 11:19:40;;;;;;;;;;;23.70;74.70;;;;;;5018245;28;20016;-81
2022/09/10 11:22:13;;;;;;;;;;;23.70;74.70;;;;;;5017779;28;20445;-81
2022/09/10 11:24:41;;;;;;;;;;;23.70;74.60;;;;;;5018612;28;19926;-80
2022/09/10 11:27:10;;;;;;;;;;;23.70;74.40;;;;;;5019021;28;19929;-80
2022/09/10 11:29:40;;;;;;;;;;;23.70;74.40;;;;;;5018406;28;19929;-79
2022/09/10 11:32:09;;;;;;;;;;;23.70;74.40;;;;;;5015627;28;19948;-80
2022/09/10 11:34:40;;;;;;;;;;;23.70;74.20;;;;;;5016846;28;20008;-81
2022/09/10 11:37:14;;;;;;;;;;;23.70;74.00;;;;;;5019385;28;19925;-81
2022/09/10 11:39:45;;;;;;;;;;;23.70;73.90;;;;;;5019598;28;19932;-80
2022/09/10 11:42:15;;;;;;;;;;;23.70;73.80;;;;;;5019439;28;19925;-81
2022/09/10 11:44:47;;;;;;;;;;;23.70;73.60;;;;;;5019199;28;20282;-81
2022/09/10 11:47:15;;;;;;;;;;;23.70;73.30;;;;;;5019183;28;20020;-81
2022/09/10 11:49:47;;;;;;;;;;;23.70;73.20;;;;;;5019721;28;19931;-81
2022/09/10 11:52:14;;;;;;;;;;;23.70;73.10;;;;;;5019260;28;19925;-80
2022/09/10 11:54:45;;;;;;;;;;;23.70;73.10;;;;;;5019233;28;19925;-80
2022/09/10 11:57:15;;;;;;;;;;;23.70;72.90;;;;;;5019815;28;19981;-80
2022/09/10 11:59:50;;;;;;;;;;;23.70;72.80;;;;;;5019282;28;19925;-80
2022/09/10 12:02:25;;;;;;;;;;;23.70;72.70;;;;;;5019517;28;20020;-80
2022/09/10 12:04:56;;;;;;;;;;;23.70;72.60;;;;;;5019026;28;20011;-80
2022/09/10 12:07:28;;;;;;;;;;;23.70;72.40;;;;;;5018985;28;20024;-80
2022/09/10 12:10:04;;;;;;;;;;;23.60;72.20;;;;;;5018780;28;20448;-80
2022/09/10 12:12:33;;;;;;;;;;;23.70;72.10;;;;;;5018556;28;20395;-80
2022/09/10 12:15:00;;;;;;;;;;;23.70;71.70;;;;;;5019116;28;19929;-81
2022/09/10 12:17:29;;;;;;;;;;;23.60;71.70;;;;;;5019240;28;19941;-81
2022/09/10 12:19:57;;;;;;;;;;;23.70;71.70;;;;;;5018907;28;19925;-81
2022/09/10 12:22:25;;;;;;;;;;;23.70;71.70;;;;;;5019885;28;20317;-81
2022/09/10 12:24:54;;;;;;;;;;;23.60;71.40;;;;;;5018396;28;20295;-80
2022/09/10 12:27:43;;;;;;;;;;;23.60;71.10;;;;;;5018676;28;19926;-80
2022/09/10 12:30:29;;;;;;;;;;;23.60;71.00;;;;;;5018814;28;20293;-80
2022/09/10 12:32:59;;;;;;;;;;;23.60;70.80;;;;;;5018483;28;19988;-80
2022/09/10 12:35:46;;;;;;;;;;;23.60;70.60;;;;;;5018795;28;20008;-80
2022/09/10 12:38:32;;;;;;;;;;;23.60;70.50;;;;;;5018619;28;20016;-80
2022/09/10 12:40:59;;;;;;;;;;;23.60;70.30;;;;;;5018844;28;19932;-80
2022/09/10 12:43:44;;;;;;;;;;;23.60;70.00;;;;;;5017998;28;19925;-80
2022/09/10 12:46:21;;;;;;;;;;;23.60;70.00;;;;;;5017843;28;19925;-80
2022/09/10 12:48:49;;;;;;;;;;;23.60;69.70;;;;;;5041598;22;19925;-75
2022/09/10 12:51:25;;;;;;;;;;;23.60;69.60;;;;;;5016714;28;19926;-74
2022/09/10 12:54:00;;;;;;;;;;;23.60;69.40;;;;;;5016626;28;19926;-74
2022/09/10 12:56:41;;;;;;;;;;;23.60;69.30;;;;;;5016708;28;19932;-74
2022/09/10 12:59:17;;;;;;;;;;;23.60;69.10;;;;;;5016702;28;19926;-74
2022/09/10 13:01:46;;;;;;;;;;;23.60;69.80;;;;;;5016297;28;20369;-74
2022/09/10 13:04:20;;;;;;;;;;;23.60;69.00;;;;;;5016555;28;19930;-75
2022/09/10 13:06:47;;;;;;;;;;;23.70;69.00;;;;;;5018192;28;19925;-75
2022/09/10 13:09:18;;;;;;;;;;;23.70;68.80;;;;;;5016077;28;19932;-76
2022/09/10 13:11:46;;;;;;;;;;;23.70;68.60;;;;;;5016285;28;19931;-75
2022/09/10 13:14:17;;;;;;;;;;;23.70;68.50;;;;;;5016361;28;19929;-75
2022/09/10 13:16:45;;;;;;;;;;;23.70;68.40;;;;;;5016341;28;20011;-75
2022/09/10 13:19:30;;;;;;;;;;;23.70;68.20;;;;;;5015922;28;20274;-75
2022/09/10 13:21:57;;;;;;;;;;;23.70;68.00;;;;;;5016182;28;19932;-75
2022/09/10 13:24:37;;;;;;;;;;;23.70;67.80;;;;;;5016180;28;19926;-77
2022/09/10 13:27:04;;;;;;;;;;;23.70;67.70;;;;;;5016117;28;19929;-77
2022/09/10 13:29:35;;;;;;;;;;;23.70;67.50;;;;;;5015992;28;20349;-78
2022/09/10 13:32:05;;;;;;;;;;;23.70;67.30;;;;;;5015942;28;19925;-78
2022/09/10 13:34:43;;;;;;;;;;;23.60;67.00;;;;;;5015897;28;19930;-77
2022/09/10 13:37:26;;;;;;;;;;;23.70;66.90;;;;;;5015955;28;19979;-77
2022/09/10 13:40:10;;;;;;;;;;;23.60;66.60;;;;;;5015515;28;20381;-78
2022/09/10 13:42:54;;;;;;;;;;;23.60;66.20;;;;;;5015855;28;19948;-77
2022/09/10 13:45:23;;;;;;;;;;;23.60;66.00;;;;;;5015491;28;20407;-77
2022/09/10 13:47:56;;;;;;;;;;;23.70;65.70;;;;;;5015638;28;19925;-78
2022/09/10 13:50:24;;;;;;;;;;;23.60;65.60;;;;;;5015400;28;19925;-77
2022/09/10 13:52:53;;;;;;;;;;;23.60;65.60;;;;;;5017231;28;19925;-79
2022/09/10 17:31:56;;;;;;;;;;;23.30;54.70;;;;;;5834226;23;19932;-81
2022/09/10 17:34:23;;;;;;;;;;;23.40;54.70;;;;;;5022240;28;19976;-80
2022/09/10 17:36:49;;;;;;;;;;;23.40;54.80;;;;;;5021929;28;20285;-81
2022/09/10 17:39:16;;;;;;;;;;;23.40;54.70;;;;;;5020210;28;20028;-79
2022/09/10 17:41:43;;;;;;;;;;;23.40;54.70;;;;;;5019450;28;19925;-80
2022/09/10 17:44:10;;;;;;;;;;;23.40;54.80;;;;;;5020657;28;19990;-81
2022/09/10 17:46:37;;;;;;;;;;;23.40;54.80;;;;;;5020142;28;19934;-80
2022/09/10 17:49:05;;;;;;;;;;;23.40;54.70;;;;;;5019779;28;20384;-80
2022/09/10 17:51:33;;;;;;;;;;;23.40;54.70;;;;;;5020162;28;19932;-80
2022/09/10 17:54:01;;;;;;;;;;;23.40;54.70;;;;;;5021127;28;20472;-80
2022/09/10 17:56:28;;;;;;;;;;;23.40;54.70;;;;;;5022249;28;20008;-79
2022/09/10 17:58:58;;;;;;;;;;;23.40;54.70;;;;;;5025399;28;19956;-79
2022/09/10 18:01:28;;;;;;;;;;;23.50;54.80;;;;;;5022081;28;19933;-79
2022/09/10 18:03:55;;;;;;;;;;;23.40;54.70;;;;;;5021110;28;19959;-80
2022/09/10 18:06:24;;;;;;;;;;;23.50;54.80;;;;;;5019664;28;19980;-80
2022/09/10 18:08:51;;;;;;;;;;;23.40;54.80;;;;;;5020830;28;19932;-80
2022/09/10 18:11:18;;;;;;;;;;;23.50;54.90;;;;;;5019961;28;19925;-79
2022/09/10 18:13:48;;;;;;;;;;;23.50;54.90;;;;;;5020318;28;19925;-79
2022/09/10 18:16:16;;;;;;;;;;;23.50;55.00;;;;;;5020874;28;19926;-79
2022/09/10 18:18:44;;;;;;;;;;;23.50;55.00;;;;;;5020126;28;19925;-79
2022/09/10 18:21:12;;;;;;;;;;;23.50;55.10;;;;;;5019931;28;19925;-81
2022/09/10 18:23:42;;;;;;;;;;;23.50;55.10;;;;;;5020121;28;20311;-80
2022/09/10 18:26:13;;;;;;;;;;;23.50;55.10;;;;;;5019036;28;19925;-79
2022/09/10 18:28:39;;;;;;;;;;;23.50;55.10;;;;;;5018882;28;19932;-77
2022/09/10 18:31:06;;;;;;;;;;;23.50;55.10;;;;;;5017977;28;20380;-77
2022/09/10 18:33:34;;;;;;;;;;;23.60;55.30;;;;;;5017592;28;19931;-77
2022/09/10 18:36:01;;;;;;;;;;;23.60;55.30;;;;;;5018608;28;19975;-77
2022/09/10 18:38:28;;;;;;;;;;;23.50;55.20;;;;;;5018168;28;19926;-77
2022/09/10 18:40:56;;;;;;;;;;;23.60;55.30;;;;;;5018508;28;20278;-77
2022/09/10 18:43:23;;;;;;;;;;;23.60;55.30;;;;;;5018627;28;19929;-75
2022/09/10 18:45:50;;;;;;;;;;;23.60;55.30;;;;;;5017640;28;19925;-76
2022/09/10 18:48:17;;;;;;;;;;;23.60;55.30;;;;;;5017730;28;19975;-78
2022/09/10 18:50:43;;;;;;;;;;;23.60;55.40;;;;;;5018075;28;20404;-79
2022/09/10 18:53:11;;;;;;;;;;;23.60;55.40;;;;;;5020573;28;20456;-77
2022/09/10 18:55:38;;;;;;;;;;;23.60;55.40;;;;;;5019125;28;19925;-79
2022/09/10 18:58:06;;;;;;;;;;;23.60;55.40;;;;;;5020771;28;19965;-80
2022/09/10 19:00:32;;;;;;;;;;;23.60;55.40;;;;;;5020745;28;19932;-81
2022/09/10 19:02:59;;;;;;;;;;;23.60;55.40;;;;;;5018861;28;20278;-78
2022/09/10 19:05:28;;;;;;;;;;;23.60;55.40;;;;;;5017030;28;20078;-78
2022/09/10 19:07:54;;;;;;;;;;;23.60;55.50;;;;;;5019733;28;19961;-81
2022/09/10 19:10:21;;;;;;;;;;;23.60;55.40;;;;;;5021153;28;19964;-77
2022/09/10 19:12:55;;;;;;;;;;;23.60;55.50;;;;;;5019366;28;19929;-77
2022/09/10 19:15:24;;;;;;;;;;;23.60;55.50;;;;;;5020548;28;19988;-79
2022/09/10 19:17:51;;;;;;;;;;;23.60;55.50;;;;;;5018429;28;19926;-79
2022/09/10 19:20:17;;;;;;;;;;;23.60;55.50;;;;;;5017950;28;19926;-79
2022/09/10 19:22:44;;;;;;;;;;;23.60;55.50;;;;;;5018426;28;19949;-80
2022/09/10 19:25:11;;;;;;;;;;;23.60;55.50;;;;;;5018042;28;20340;-80
2022/09/10 19:27:38;;;;;;;;;;;23.60;55.50;;;;;;5018092;28;19960;-79
2022/09/10 19:30:05;;;;;;;;;;;23.60;55.40;;;;;;5017838;28;19932;-79
2022/09/10 19:32:33;;;;;;;;;;;23.60;56.00;;;;;;5017844;28;19933;-79
2022/09/10 19:35:00;;;;;;;;;;;23.60;55.40;;;;;;5017796;28;19932;-79
2022/09/10 19:37:27;;;;;;;;;;;23.60;55.40;;;;;;5018162;28;20023;-79
2022/09/10 19:39:55;;;;;;;;;;;23.60;55.40;;;;;;5017834;28;19926;-79
2022/09/10 19:42:23;;;;;;;;;;;23.60;55.40;;;;;;5018562;28;19925;-78
2022/09/10 19:44:49;;;;;;;;;;;23.60;55.30;;;;;;5018834;28;19926;-78
2022/09/10 19:47:16;;;;;;;;;;;23.60;55.30;;;;;;5018750;28;19973;-78
2022/09/10 19:49:44;;;;;;;;;;;23.60;55.30;;;;;;5017929;28;19925;-78
2022/09/10 19:52:11;;;;;;;;;;;23.60;55.30;;;;;;5017898;28;19932;-78
2022/09/10 19:54:37;;;;;;;;;;;23.60;55.20;;;;;;5016936;28;20304;-79
2022/09/10 19:57:04;;;;;;;;;;;23.60;55.30;;;;;;5019811;28;20373;-78
2022/09/10 19:59:31;;;;;;;;;;;23.60;55.30;;;;;;5021178;28;20277;-79
2022/09/10 20:01:57;;;;;;;;;;;23.60;55.30;;;;;;5018913;28;20457;-79
2022/09/10 20:04:24;;;;;;;;;;;23.60;55.30;;;;;;5018903;28;19926;-78
2022/09/10 20:06:52;;;;;;;;;;;23.60;55.30;;;;;;5020341;28;19925;-78
2022/09/10 20:09:19;;;;;;;;;;;23.60;55.30;;;;;;5020929;28;19935;-78
2022/09/10 20:11:45;;;;;;;;;;;23.60;55.30;;;;;;5019445;28;20008;-79
2022/09/10 20:14:13;;;;;;;;;;;23.60;55.30;;;;;;5018602;28;20012;-78
2022/09/10 20:16:41;;;;;;;;;;;23.60;55.30;;;;;;5018695;28;19932;-78
2022/09/10 20:19:09;;;;;;;;;;;23.60;55.30;;;;;;5018345;28;19933;-78
2022/09/10 20:21:36;;;;;;;;;;;23.60;55.30;;;;;;5017930;28;19974;-78
2022/09/10 20:24:06;;;;;;;;;;;23.60;55.30;;;;;;5017555;28;20285;-76
2022/09/10 20:26:33;;;;;;;;;;;23.60;55.30;;;;;;5017482;28;20377;-78
2022/09/10 20:29:00;;;;;;;;;;;23.60;55.30;;;;;;5017407;28;19925;-75
2022/09/10 20:31:28;;;;;;;;;;;23.60;55.30;;;;;;5016834;28;20280;-74
2022/09/10 20:33:56;;;;;;;;;;;23.60;55.40;;;;;;5016840;28;19932;-74
2022/09/10 20:36:23;;;;;;;;;;;23.60;55.40;;;;;;5017082;28;19933;-74
2022/09/10 20:38:50;;;;;;;;;;;23.60;55.40;;;;;;5016711;28;19925;-74
2022/09/10 20:41:19;;;;;;;;;;;23.60;55.40;;;;;;5016914;28;19925;-74
2022/09/10 20:43:49;;;;;;;;;;;23.60;55.40;;;;;;5016957;28;19925;-74
2022/09/10 20:46:16;;;;;;;;;;;23.60;55.50;;;;;;5016956;28;19925;-74
2022/09/10 20:48:43;;;;;;;;;;;23.60;55.50;;;;;;5016844;28;19925;-74
2022/09/10 20:51:10;;;;;;;;;;;23.60;55.50;;;;;;5016742;28;19925;-74
2022/09/10 20:53:38;;;;;;;;;;;23.60;55.50;;;;;;5016676;28;19929;-74
2022/09/10 20:56:05;;;;;;;;;;;23.60;55.60;;;;;;5016706;28;19932;-75
2022/09/10 20:58:36;;;;;;;;;;;23.60;55.60;;;;;;5016666;28;19929;-75
2022/09/10 21:01:08;;;;;;;;;;;23.60;55.60;;;;;;5016352;28;19999;-75
2022/09/10 21:03:34;;;;;;;;;;;23.60;55.70;;;;;;5016505;28;19931;-75
2022/09/10 21:06:01;;;;;;;;;;;23.60;55.70;;;;;;5016529;28;20008;-74
2022/09/10 21:08:30;;;;;;;;;;;23.60;55.70;;;;;;5015778;28;19929;-74
2022/09/10 21:11:00;;;;;;;;;;;23.60;55.80;;;;;;5016425;28;19948;-75
2022/09/10 21:13:27;;;;;;;;;;;23.60;55.90;;;;;;5016273;28;19925;-75
2022/09/10 21:15:55;;;;;;;;;;;23.60;55.90;;;;;;5016350;28;19926;-75
2022/09/10 21:18:21;;;;;;;;;;;23.60;55.90;;;;;;5016337;28;19932;-75
2022/09/10 21:20:48;;;;;;;;;;;23.60;56.00;;;;;;5016613;28;20008;-74
2022/09/10 21:23:15;;;;;;;;;;;23.60;56.00;;;;;;5016178;28;20016;-74
2022/09/10 21:25:50;;;;;;;;;;;23.70;56.20;;;;;;5016173;28;19926;-74
2022/09/10 21:28:16;;;;;;;;;;;23.70;56.20;;;;;;5016165;28;20089;-74
2022/09/10 21:30:43;;;;;;;;;;;23.70;56.90;;;;;;5015773;28;19926;-74
2022/09/10 21:33:11;;;;;;;;;;;23.70;56.30;;;;;;5015693;28;20008;-74
2022/09/10 21:35:37;;;;;;;;;;;23.70;56.40;;;;;;5015966;28;19932;-74
2022/09/10 21:38:05;;;;;;;;;;;23.70;56.40;;;;;;5015955;28;20020;-74
2022/09/10 21:40:31;;;;;;;;;;;23.70;56.50;;;;;;5015890;28;19960;-74
2022/09/10 21:42:59;;;;;;;;;;;23.70;56.60;;;;;;5016351;28;20021;-74
2022/09/10 21:45:26;;;;;;;;;;;23.70;56.70;;;;;;5015823;28;19926;-74
2022/09/10 21:47:53;;;;;;;;;;;23.70;56.70;;;;;;5015737;28;19975;-74
2022/09/10 21:50:21;;;;;;;;;;;23.70;56.80;;;;;;5015737;28;20016;-74
2022/09/10 21:52:47;;;;;;;;;;;23.70;56.90;;;;;;5015516;28;19932;-74
2022/09/10 21:55:14;;;;;;;;;;;23.70;56.90;;;;;;5015294;28;20289;-75
2022/09/10 21:57:42;;;;;;;;;;;23.70;56.90;;;;;;5015517;28;19947;-74
2022/09/10 22:00:13;;;;;;;;;;;23.70;57.00;;;;;;5015243;28;19969;-74
2022/09/10 22:02:40;;;;;;;;;;;23.70;57.00;;;;;;5015440;28;19929;-74
2022/09/10 22:05:08;;;;;;;;;;;23.60;57.00;;;;;;5015451;28;19926;-74
2022/09/10 22:07:36;;;;;;;;;;;23.70;57.20;;;;;;5016533;28;20403;-77
2022/09/10 22:10:04;;;;;;;;;;;23.60;57.70;;;;;;5015389;28;20297;-77
2022/09/10 22:12:31;;;;;;;;;;;23.70;57.30;;;;;;5015406;28;19925;-77
2022/09/10 22:14:58;;;;;;;;;;;23.60;57.30;;;;;;5014950;28;20361;-77
2022/09/10 22:17:25;;;;;;;;;;;23.70;57.40;;;;;;5015259;28;19925;-77
2022/09/10 22:19:51;;;;;;;;;;;23.70;57.50;;;;;;5013888;28;20365;-77
2022/09/10 22:22:18;;;;;;;;;;;23.60;57.50;;;;;;5015095;28;19925;-77
2022/09/10 22:24:46;;;;;;;;;;;23.70;57.60;;;;;;5015149;28;20028;-77
2022/09/10 22:27:13;;;;;;;;;;;23.60;57.60;;;;;;5015178;28;19929;-77
2022/09/10 22:29:39;;;;;;;;;;;23.60;57.70;;;;;;5015060;28;20352;-77
2022/09/10 22:32:06;;;;;;;;;;;23.70;57.80;;;;;;5014562;28;20468;-77
2022/09/10 22:34:32;;;;;;;;;;;23.60;57.80;;;;;;5014626;28;19926;-77
2022/09/10 22:37:02;;;;;;;;;;;23.60;57.90;;;;;;5014711;28;20389;-77
2022/09/10 22:39:30;;;;;;;;;;;23.70;58.00;;;;;;5014901;28;19975;-77
2022/09/10 22:41:58;;;;;;;;;;;23.70;58.10;;;;;;5014813;28;19948;-77
2022/09/10 22:44:25;;;;;;;;;;;23.70;58.20;;;;;;5014767;28;19931;-77
2022/09/10 22:46:52;;;;;;;;;;;23.70;58.20;;;;;;5014410;28;20411;-77
2022/09/10 22:49:18;;;;;;;;;;;23.70;58.30;;;;;;5014420;28;20465;-77
2022/09/10 22:51:45;;;;;;;;;;;23.70;58.40;;;;;;5014583;28;19926;-77
2022/09/10 22:54:11;;;;;;;;;;;23.70;58.40;;;;;;5014712;28;20054;-78
2022/09/10 22:56:39;;;;;;;;;;;23.70;58.50;;;;;;5014617;28;20016;-77
2022/09/10 22:59:07;;;;;;;;;;;23.70;58.60;;;;;;5014279;28;20385;-77
2022/09/10 23:01:35;;;;;;;;;;;23.70;58.60;;;;;;5014476;28;19931;-77
2022/09/10 23:04:03;;;;;;;;;;;23.70;58.70;;;;;;5014473;28;19933;-77
2022/09/10 23:06:30;;;;;;;;;;;23.70;58.80;;;;;;5014132;28;20309;-77
2022/09/10 23:09:01;;;;;;;;;;;23.70;58.90;;;;;;5014478;28;20008;-77
2022/09/10 23:11:28;;;;;;;;;;;23.70;59.00;;;;;;5014660;28;19925;-77
2022/09/10 23:13:56;;;;;;;;;;;23.70;59.00;;;;;;5014021;28;19932;-77
2022/09/10 23:16:25;;;;;;;;;;;23.70;59.10;;;;;;5014366;28;19933;-77
2022/09/10 23:18:53;;;;;;;;;;;23.70;59.70;;;;;;5014288;28;19948;-77
2022/09/10 23:21:20;;;;;;;;;;;23.60;59.20;;;;;;5013980;28;19925;-77
2022/09/10 23:23:48;;;;;;;;;;;23.70;59.30;;;;;;5014320;28;19925;-77
2022/09/10 23:26:15;;;;;;;;;;;23.70;59.40;;;;;;5014116;28;19926;-77
2022/09/10 23:28:42;;;;;;;;;;;23.70;59.40;;;;;;5014365;28;19926;-77
2022/09/10 23:31:11;;;;;;;;;;;23.60;59.50;;;;;;5016510;28;20281;-77
2022/09/10 23:33:39;;;;;;;;;;;23.70;59.70;;;;;;5017933;28;19976;-77
2022/09/10 23:36:06;;;;;;;;;;;23.70;59.70;;;;;;5018299;28;19925;-77
2022/09/10 23:38:33;;;;;;;;;;;23.70;59.70;;;;;;5018077;28;19926;-77
2022/09/10 23:41:00;;;;;;;;;;;23.70;59.70;;;;;;5017940;28;20403;-78
2022/09/10 23:43:27;;;;;;;;;;;23.70;59.70;;;;;;5018548;28;19991;-78
2022/09/10 23:45:54;;;;;;;;;;;23.60;59.60;;;;;;5018084;28;19925;-78
2022/09/10 23:48:21;;;;;;;;;;;23.70;59.70;;;;;;5018217;28;19925;-77
2022/09/10 23:50:49;;;;;;;;;;;23.60;59.60;;;;;;5018016;28;19976;-77
2022/09/10 23:53:16;;;;;;;;;;;23.60;59.60;;;;;;5017776;28;19975;-77
2022/09/10 23:55:43;;;;;;;;;;;23.70;59.70;;;;;;5017855;28;20032;-77
2022/09/10 23:58:10;;;;;;;;;;;23.60;60.30;;;;;;5017831;28;20008;-77
